createdAt,value
2019-05-01T00:00:42.424Z,78.00
2019-05-01T00:03:25.408Z,77.20
2019-05-01T00:05:56.542Z,77.70
2019-05-01T00:08:31.973Z,77.00
2019-05-01T00:10:59.567Z,76.80
2019-05-01T00:13:27.748Z,78.90
2019-05-01T00:15:55.761Z,77.30
2019-05-01T00:18:23.386Z,77.40
2019-05-01T00:20:50.795Z,79.20
2019-05-01T00:23:18.344Z,77.70
2019-05-01T00:25:46.202Z,76.60
2019-05-01T00:28:17.497Z,76.60
2019-05-01T00:30:45.949Z,76.50
2019-05-01T00:33:13.918Z,78.50
2019-05-01T00:35:42.362Z,78.30
2019-05-01T00:38:10.311Z,79.20
2019-05-01T00:40:37.674Z,80.30
2019-05-01T00:43:11.336Z,80.00
2019-05-01T00:45:39.488Z,78.10
2019-05-01T00:48:06.775Z,77.70
2019-05-01T00:50:33.957Z,78.30
2019-05-01T00:53:03.404Z,77.80
2019-05-01T00:55:48.912Z,78.20
2019-05-01T00:58:23.829Z,79.00
2019-05-01T01:01:07.437Z,80.90
2019-05-01T01:03:41.011Z,80.60
2019-05-01T01:06:10.507Z,79.80
2019-05-01T01:08:38.380Z,80.40
2019-05-01T01:11:07.741Z,79.20
2019-05-01T01:13:35.849Z,79.10
2019-05-01T01:16:04.774Z,79.50
2019-05-01T01:18:32.526Z,79.80
2019-05-01T01:21:00.244Z,79.60
2019-05-01T01:23:28.513Z,79.00
2019-05-01T01:25:59.831Z,79.30
2019-05-01T01:28:27.638Z,79.20
2019-05-01T01:30:56.973Z,81.60
2019-05-01T01:33:24.643Z,80.60
2019-05-01T01:35:52.421Z,79.20
2019-05-01T01:38:21.154Z,80.20
2019-05-01T01:40:50.067Z,81.90
2019-05-01T01:43:35.977Z,79.70
2019-05-01T01:46:05.222Z,81.30
2019-05-01T01:48:32.796Z,79.90
2019-05-01T01:51:00.577Z,81.80
2019-05-01T01:53:28.222Z,80.20
2019-05-01T01:55:55.718Z,81.40
2019-05-01T01:58:23.230Z,82.80
2019-05-01T02:01:16.949Z,82.10
2019-05-01T02:03:47.822Z,83.70
2019-05-01T02:06:16.908Z,84.50
2019-05-01T02:08:56.001Z,81.90
2019-05-01T02:11:16.582Z,85.40
2019-05-01T02:13:44.459Z,83.90
2019-05-01T02:16:12.092Z,84.00
2019-05-01T02:18:39.811Z,85.40
2019-05-01T02:21:07.549Z,86.80
2019-05-01T02:23:35.209Z,86.80
2019-05-01T02:26:04.701Z,87.20
2019-05-01T02:28:41.489Z,85.60
2019-05-01T02:31:42.804Z,86.00
2019-05-01T02:34:10.611Z,85.80
2019-05-01T02:36:38.683Z,85.20
2019-05-01T02:39:08.196Z,84.50
2019-05-01T02:41:36.445Z,86.60
2019-05-01T02:44:09.429Z,85.70
2019-05-01T02:46:37.111Z,84.50
2019-05-01T02:49:08.402Z,85.50
2019-05-01T02:51:37.022Z,86.00
2019-05-01T02:54:04.805Z,85.40
2019-05-01T02:56:42.814Z,83.80
2019-05-01T02:59:10.398Z,86.10
2019-05-01T03:01:47.228Z,87.90
2019-05-01T03:04:08.420Z,87.90
2019-05-01T03:06:36.030Z,87.50
2019-05-01T03:09:07.031Z,86.70
2019-05-01T03:11:35.220Z,87.80
2019-05-01T03:14:03.197Z,86.30
2019-05-01T03:16:31.119Z,87.50
2019-05-01T03:19:00.286Z,86.90
2019-05-01T03:21:36.153Z,87.20
2019-05-01T03:24:16.614Z,87.40
2019-05-01T03:26:44.607Z,87.30
2019-05-01T03:29:12.120Z,86.60
2019-05-01T03:31:40.890Z,87.80
2019-05-01T03:34:09.483Z,86.90
2019-05-01T03:36:37.227Z,84.90
2019-05-01T03:39:05.404Z,85.10
2019-05-01T03:41:33.128Z,86.80
2019-05-01T03:44:02.116Z,88.80
2019-05-01T03:46:29.892Z,88.40
2019-05-01T03:48:57.822Z,88.60
2019-05-01T03:51:25.857Z,87.50
2019-05-01T03:53:53.450Z,86.50
2019-05-01T03:56:21.408Z,87.50
2019-05-01T03:58:51.107Z,88.10
2019-05-01T04:01:26.047Z,88.20
2019-05-01T04:03:58.094Z,88.20
2019-05-01T04:06:25.700Z,89.10
2019-05-01T04:08:53.987Z,87.90
2019-05-01T04:11:21.774Z,89.20
2019-05-01T04:13:50.521Z,88.80
2019-05-01T04:16:18.796Z,90.00
2019-05-01T04:18:46.496Z,88.50
2019-05-01T04:21:15.246Z,89.10
2019-05-01T04:23:43.216Z,89.30
2019-05-01T04:26:11.533Z,88.10
2019-05-01T04:28:55.157Z,87.80
2019-05-01T04:31:42.506Z,88.10
2019-05-01T04:34:17.117Z,88.10
2019-05-01T04:36:48.155Z,88.70
2019-05-01T04:39:16.448Z,88.60
2019-05-01T04:41:43.949Z,89.40
2019-05-01T04:44:11.493Z,88.30
2019-05-01T04:46:38.911Z,88.60
2019-05-01T04:49:06.373Z,88.70
2019-05-01T04:51:33.977Z,88.40
2019-05-01T04:54:01.536Z,87.80
2019-05-01T04:56:34.933Z,87.80
2019-05-01T04:59:02.298Z,89.30
2019-05-01T05:01:49.517Z,88.50
2019-05-01T05:04:17.177Z,88.10
2019-05-01T05:06:44.735Z,87.80
2019-05-01T05:09:12.288Z,89.40
2019-05-01T05:11:49.453Z,88.90
2019-05-01T05:14:21.468Z,88.30
2019-05-01T05:16:58.253Z,88.50
2019-05-01T05:19:25.624Z,87.70
2019-05-01T05:21:52.952Z,88.50
2019-05-01T05:24:20.301Z,87.80
2019-05-01T05:26:48.002Z,88.70
2019-05-01T05:29:15.763Z,87.80
2019-05-01T05:31:43.131Z,88.90
2019-05-01T05:34:11.143Z,88.30
2019-05-01T05:36:38.521Z,89.10
2019-05-01T05:39:11.678Z,88.40
2019-05-01T05:41:39.335Z,87.60
2019-05-01T05:44:07.555Z,87.00
2019-05-01T05:46:35.101Z,87.10
2019-05-01T05:49:03.560Z,86.60
2019-05-01T05:51:55.847Z,86.60
2019-05-01T05:54:42.591Z,86.70
2019-05-01T05:57:17.360Z,86.50
2019-05-01T05:59:48.056Z,86.30
2019-05-01T06:02:40.629Z,84.80
2019-05-01T06:05:16.365Z,85.60
2019-05-01T06:08:05.656Z,85.30
2019-05-01T06:11:00.160Z,85.60
2019-05-01T06:13:45.758Z,84.00
2019-05-01T06:16:26.447Z,84.10
2019-05-01T06:19:14.592Z,83.00
2019-05-01T06:22:14.972Z,83.60
2019-05-01T06:24:45.463Z,82.70
2019-05-01T06:27:15.348Z,82.80
2019-05-01T06:29:43.279Z,83.10
2019-05-01T06:32:10.804Z,82.60
2019-05-01T06:34:38.586Z,83.10
2019-05-01T06:37:07.190Z,82.10
2019-05-01T06:39:36.211Z,81.70
2019-05-01T06:42:15.107Z,79.80
2019-05-01T06:45:01.163Z,80.30
2019-05-01T06:50:12.347Z,77.80
2019-05-01T06:52:41.381Z,79.20
2019-05-01T06:55:11.088Z,79.10
2019-05-01T06:57:43.855Z,77.40
2019-05-01T07:00:15.934Z,76.90
2019-05-01T07:02:43.555Z,79.20
2019-05-01T07:05:14.750Z,77.60
2019-05-01T07:07:43.253Z,75.90
2019-05-01T07:10:10.695Z,75.30
2019-05-01T07:12:38.190Z,77.50
2019-05-01T07:15:11.728Z,76.80
2019-05-01T07:17:39.222Z,75.00
2019-05-01T07:20:32.257Z,71.50
2019-05-01T07:23:00.009Z,74.40
2019-05-01T07:25:28.919Z,74.20
2019-05-01T07:27:58.594Z,72.90
2019-05-01T07:30:54.743Z,73.80
2019-05-01T07:33:21.531Z,72.90
2019-05-01T07:35:49.792Z,70.70
2019-05-01T07:38:20.778Z,71.50
2019-05-01T07:40:48.171Z,71.20
2019-05-01T07:43:47.813Z,71.80
2019-05-01T07:46:36.270Z,71.70
2019-05-01T07:49:03.891Z,69.40
2019-05-01T07:51:31.525Z,69.70
2019-05-01T07:54:04.075Z,71.10
2019-05-01T07:56:30.077Z,70.90
2019-05-01T07:59:00.497Z,70.10
2019-05-01T08:01:54.482Z,70.30
2019-05-01T08:04:35.188Z,71.30
2019-05-01T08:06:52.088Z,69.30
2019-05-01T08:09:20.169Z,66.50
2019-05-01T08:11:49.941Z,68.70
2019-05-01T08:14:18.651Z,68.70
2019-05-01T08:16:46.305Z,65.90
2019-05-01T08:19:22.321Z,63.00
2019-05-01T08:22:03.073Z,63.40
2019-05-01T08:24:30.925Z,64.70
2019-05-01T08:26:58.423Z,65.00
2019-05-01T08:29:44.173Z,65.50
2019-05-01T08:32:33.672Z,65.40
2019-05-01T08:35:08.434Z,64.60
2019-05-01T08:37:35.811Z,64.90
2019-05-01T08:40:03.624Z,66.70
2019-05-01T08:42:31.395Z,63.70
2019-05-01T08:45:21.085Z,67.00
2019-05-01T08:48:09.235Z,59.00
2019-05-01T08:50:37.013Z,61.00
2019-05-01T08:53:05.015Z,58.80
2019-05-01T08:55:32.496Z,58.90
2019-05-01T08:58:03.977Z,59.50
2019-05-01T09:00:36.412Z,58.20
2019-05-01T09:03:08.120Z,58.50
2019-05-01T09:05:33.613Z,57.70
2019-05-01T09:07:59.389Z,58.70
2019-05-01T09:10:27.834Z,55.30
2019-05-01T09:12:55.661Z,58.40
2019-05-01T09:15:24.081Z,51.90
2019-05-01T09:17:52.505Z,52.70
2019-05-01T09:20:22.843Z,51.70
2019-05-01T09:22:52.354Z,55.30
2019-05-01T09:25:35.389Z,50.40
2019-05-01T09:28:14.516Z,50.10
2019-05-01T09:30:47.716Z,48.00
2019-05-01T09:33:15.575Z,50.60
2019-05-01T09:35:45.412Z,45.80
2019-05-01T09:38:12.591Z,52.30
2019-05-01T09:40:41.645Z,45.00
2019-05-01T09:43:10.043Z,47.20
2019-05-01T09:45:37.619Z,45.20
2019-05-01T09:48:06.558Z,45.20
2019-05-01T09:50:40.608Z,41.40
2019-05-01T09:53:18.529Z,41.00
2019-05-01T09:55:49.313Z,41.80
2019-05-01T09:58:16.822Z,44.30
2019-05-01T10:00:48.850Z,39.30
2019-05-01T10:03:16.878Z,43.30
2019-05-01T10:05:44.580Z,43.70
2019-05-01T10:08:12.098Z,42.10
2019-05-01T10:10:39.818Z,39.60
2019-05-01T10:13:13.080Z,42.90
2019-05-01T10:15:43.715Z,38.80
2019-05-01T10:18:17.307Z,40.00
2019-05-01T10:20:47.398Z,37.60
2019-05-01T10:23:16.399Z,41.30
2019-05-01T10:25:50.821Z,40.70
2019-05-01T10:28:37.911Z,37.60
2019-05-01T10:31:13.295Z,36.50
2019-05-01T10:33:42.816Z,36.90
2019-05-01T10:36:30.351Z,38.60
2019-05-01T10:39:00.402Z,36.60
2019-05-01T10:41:28.040Z,38.50
2019-05-01T10:43:55.992Z,40.80
2019-05-01T10:46:23.942Z,38.00
2019-05-01T10:48:52.373Z,43.20
2019-05-01T10:51:23.055Z,39.70
2019-05-01T10:53:50.567Z,38.50
2019-05-01T10:56:21.727Z,37.00
2019-05-01T10:58:49.929Z,39.20
2019-05-01T11:01:37.190Z,38.30
2019-05-01T11:04:04.739Z,37.40
2019-05-01T11:06:32.148Z,37.60
2019-05-01T11:09:00.298Z,37.30
2019-05-01T11:11:34.037Z,39.30
2019-05-01T11:14:01.461Z,37.80
2019-05-01T11:16:29.050Z,38.10
2019-05-01T11:18:56.682Z,37.70
2019-05-01T11:21:25.846Z,38.30
2019-05-01T11:23:54.927Z,36.60
2019-05-01T11:26:23.127Z,35.60
2019-05-01T11:28:50.624Z,36.20
2019-05-01T11:31:22.652Z,34.20
2019-05-01T11:34:07.818Z,33.70
2019-05-01T11:36:44.895Z,35.20
2019-05-01T11:39:26.317Z,35.60
2019-05-01T11:42:05.153Z,36.30
2019-05-01T11:44:32.753Z,35.90
2019-05-01T11:47:00.101Z,34.70
2019-05-01T11:49:31.555Z,34.50
2019-05-01T11:52:07.896Z,35.20
2019-05-01T11:54:35.301Z,34.90
2019-05-01T11:57:03.374Z,36.30
2019-05-01T11:59:32.730Z,38.20
2019-05-01T12:02:02.509Z,35.00
2019-05-01T12:04:31.244Z,35.40
2019-05-01T12:06:58.676Z,37.00
2019-05-01T12:09:26.057Z,34.60
2019-05-01T12:11:58.328Z,36.60
2019-05-01T12:14:25.711Z,36.00
2019-05-01T12:17:04.483Z,35.30
2019-05-01T12:19:32.835Z,36.20
2019-05-01T12:22:00.491Z,36.70
2019-05-01T12:24:27.991Z,34.30
2019-05-01T12:26:55.625Z,35.40
2019-05-01T12:29:27.013Z,35.80
2019-05-01T12:31:54.377Z,35.00
2019-05-01T12:34:21.939Z,35.60
2019-05-01T12:36:51.226Z,35.40
2019-05-01T12:39:19.900Z,36.00
2019-05-01T12:41:56.021Z,35.90
2019-05-01T12:44:28.196Z,37.00
2019-05-01T12:47:09.495Z,34.70
2019-05-01T12:49:37.901Z,35.10
2019-05-01T12:52:10.488Z,34.00
2019-05-01T12:55:00.202Z,34.70
2019-05-01T12:57:27.637Z,35.10
2019-05-01T13:00:08.403Z,33.90
2019-05-01T13:02:27.343Z,36.20
2019-05-01T13:04:54.799Z,36.50
2019-05-01T13:07:23.449Z,33.90
2019-05-01T13:09:50.951Z,36.00
2019-05-01T13:12:20.908Z,36.20
2019-05-01T13:14:48.778Z,34.50
2019-05-01T13:17:17.015Z,36.30
2019-05-01T13:19:45.694Z,36.20
2019-05-01T13:22:13.634Z,37.00
2019-05-01T13:24:49.949Z,34.30
2019-05-01T13:27:28.802Z,37.00
2019-05-01T13:30:08.489Z,36.40
2019-05-01T13:32:48.002Z,35.10
2019-05-01T13:35:16.136Z,35.60
2019-05-01T13:37:44.741Z,35.40
2019-05-01T13:40:12.838Z,36.60
2019-05-01T13:42:40.510Z,36.10
2019-05-01T13:45:08.831Z,37.80
2019-05-01T13:47:37.401Z,37.70
2019-05-01T13:50:05.919Z,37.00
2019-05-01T13:52:36.302Z,36.30
2019-05-01T13:55:04.841Z,38.00
2019-05-01T13:57:32.202Z,38.00
2019-05-01T13:59:59.866Z,37.60
2019-05-01T14:02:27.510Z,37.30
2019-05-01T14:04:56.005Z,38.40
2019-05-01T14:07:23.649Z,37.50
2019-05-01T14:09:51.306Z,38.00
2019-05-01T14:12:18.755Z,37.90
2019-05-01T14:14:48.429Z,39.60
2019-05-01T14:17:15.755Z,39.50
2019-05-01T14:19:46.936Z,39.80
2019-05-01T14:22:30.785Z,40.50
2019-05-01T14:24:59.310Z,41.30
2019-05-01T14:27:26.707Z,39.80
2019-05-01T14:29:53.966Z,40.30
2019-05-01T14:32:22.183Z,39.10
2019-05-01T14:34:49.532Z,40.30
2019-05-01T14:37:29.049Z,39.70
2019-05-01T14:39:46.221Z,40.50
2019-05-01T14:42:13.572Z,38.40
2019-05-01T14:44:41.972Z,38.00
2019-05-01T14:47:09.397Z,39.70
2019-05-01T14:49:36.846Z,41.10
2019-05-01T14:52:39.462Z,39.00
2019-05-01T14:55:06.441Z,38.60
2019-05-01T14:57:33.310Z,38.40
2019-05-01T15:00:00.628Z,39.50
2019-05-01T15:02:27.548Z,37.90
2019-05-01T15:04:58.594Z,40.10
2019-05-01T15:07:25.483Z,39.70
2019-05-01T15:09:52.824Z,39.40
2019-05-01T15:12:19.678Z,40.10
2019-05-01T15:15:09.792Z,40.30
2019-05-01T15:17:47.552Z,41.90
2019-05-01T15:20:14.630Z,41.80
2019-05-01T15:22:41.519Z,41.90
2019-05-01T15:25:09.812Z,41.00
2019-05-01T15:27:37.023Z,42.50
2019-05-01T15:30:08.356Z,42.00
2019-05-01T15:32:38.774Z,41.80
2019-05-01T15:35:05.756Z,41.70
2019-05-01T15:37:35.299Z,42.40
2019-05-01T15:40:15.246Z,42.30
2019-05-01T15:43:00.016Z,43.00
2019-05-01T15:45:29.088Z,44.40
2019-05-01T15:48:01.750Z,44.50
2019-05-01T15:50:28.844Z,44.50
2019-05-01T15:52:55.800Z,44.00
2019-05-01T15:55:22.944Z,43.30
2019-05-01T15:57:51.931Z,44.10
2019-05-01T16:00:20.168Z,43.80
2019-05-01T16:02:54.820Z,44.20
2019-05-01T16:05:21.813Z,45.80
2019-05-01T16:08:09.158Z,45.00
2019-05-01T16:10:38.863Z,44.00
2019-05-01T16:13:05.731Z,44.90
2019-05-01T16:15:34.153Z,45.10
2019-05-01T16:18:01.232Z,45.20
2019-05-01T16:20:28.250Z,45.40
2019-05-01T16:22:55.225Z,45.80
2019-05-01T16:25:26.240Z,45.60
2019-05-01T16:27:54.260Z,46.40
2019-05-01T16:30:23.813Z,46.30
2019-05-01T16:32:50.845Z,46.60
2019-05-01T16:35:17.671Z,47.20
2019-05-01T16:37:56.832Z,47.50
2019-05-01T16:40:55.938Z,46.80
2019-05-01T16:43:23.864Z,47.30
2019-05-01T16:45:59.586Z,46.90
2019-05-01T16:49:12.224Z,47.50
2019-05-01T16:51:10.669Z,47.60
2019-05-01T16:53:48.094Z,48.00
2019-05-01T16:56:16.664Z,48.20
2019-05-01T16:58:43.813Z,48.80
2019-05-01T17:01:29.242Z,48.30
2019-05-01T17:04:08.230Z,48.90
2019-05-01T17:06:41.050Z,49.10
2019-05-01T17:09:26.929Z,49.40
2019-05-01T17:12:00.685Z,49.40
2019-05-01T17:14:31.096Z,50.20
2019-05-01T17:16:58.466Z,49.80
2019-05-01T17:19:25.743Z,50.70
2019-05-01T17:21:53.953Z,49.90
2019-05-01T17:24:21.172Z,50.60
2019-05-01T17:26:47.996Z,50.80
2019-05-01T17:29:20.047Z,51.00
2019-05-01T17:31:52.435Z,50.90
2019-05-01T17:34:19.588Z,51.00
2019-05-01T17:36:47.057Z,51.60
2019-05-01T17:39:17.233Z,52.20
2019-05-01T17:41:57.595Z,52.90
2019-05-01T17:44:25.263Z,51.70
2019-05-01T17:46:57.792Z,52.00
2019-05-01T17:49:25.189Z,51.30
2019-05-01T17:51:52.184Z,51.50
2019-05-01T17:54:19.358Z,51.90
2019-05-01T17:56:53.987Z,52.50
2019-05-01T17:59:23.548Z,53.20
2019-05-01T18:02:10.225Z,53.50
2019-05-01T18:04:57.785Z,53.70
2019-05-01T18:07:34.722Z,53.60
2019-05-01T18:10:02.511Z,53.70
2019-05-01T18:12:42.345Z,54.60
2019-05-01T18:15:09.300Z,54.10
2019-05-01T18:17:39.630Z,54.60
2019-05-01T18:20:07.499Z,54.80
2019-05-01T18:22:59.831Z,55.10
2019-05-01T18:25:37.997Z,55.00
2019-05-01T18:28:24.969Z,55.30
2019-05-01T18:31:07.054Z,55.60
2019-05-01T18:34:02.768Z,56.10
2019-05-01T18:36:37.641Z,55.80
2019-05-01T18:39:17.051Z,56.30
2019-05-01T18:41:51.781Z,56.20
2019-05-01T18:44:20.409Z,55.90
2019-05-01T18:46:53.101Z,56.70
2019-05-01T18:49:22.257Z,56.70
2019-05-01T18:51:57.211Z,57.10
2019-05-01T18:54:24.391Z,57.20
2019-05-01T18:57:00.663Z,57.40
2019-05-01T18:59:32.532Z,57.40
2019-05-01T19:02:01.655Z,57.90
2019-05-01T19:04:28.784Z,57.70
2019-05-01T19:07:01.499Z,58.60
2019-05-01T19:09:36.851Z,58.20
2019-05-01T19:12:17.104Z,57.90
2019-05-01T19:14:47.220Z,59.40
2019-05-01T19:17:16.126Z,59.60
2019-05-01T19:19:43.163Z,58.90
2019-05-01T19:22:10.274Z,59.20
2019-05-01T19:24:44.259Z,59.60
2019-05-01T19:27:14.210Z,59.30
2019-05-01T19:29:50.366Z,60.20
2019-05-01T19:32:34.053Z,60.00
2019-05-01T19:35:04.334Z,60.00
2019-05-01T19:37:31.872Z,60.40
2019-05-01T19:40:15.517Z,61.20
2019-05-01T19:43:03.191Z,60.60
2019-05-01T19:45:19.320Z,61.30
2019-05-01T19:47:51.971Z,60.60
2019-05-01T19:50:18.922Z,61.80
2019-05-01T19:52:53.289Z,61.30
2019-05-01T19:55:20.307Z,61.90
2019-05-01T19:57:49.582Z,60.70
2019-05-01T20:00:41.024Z,61.90
2019-05-01T20:03:17.145Z,62.90
2019-05-01T20:05:45.337Z,62.70
2019-05-01T20:08:17.834Z,62.80
2019-05-01T20:10:47.754Z,63.00
2019-05-01T20:13:16.119Z,63.40
2019-05-01T20:15:58.592Z,64.00
2019-05-01T20:18:38.896Z,62.50
2019-05-01T20:21:13.140Z,64.10
2019-05-01T20:23:41.987Z,64.00
2019-05-01T20:26:09.944Z,64.70
2019-05-01T20:28:38.848Z,64.80
2019-05-01T20:31:05.748Z,65.90
2019-05-01T20:33:33.219Z,65.10
2019-05-01T20:36:05.213Z,65.40
2019-05-01T20:38:30.613Z,65.30
2019-05-01T20:40:58.492Z,64.80
2019-05-01T20:43:38.057Z,64.90
2019-05-01T20:46:21.374Z,65.10
2019-05-01T20:48:47.159Z,65.30
2019-05-01T20:51:20.362Z,65.30
2019-05-01T20:53:48.478Z,66.20
2019-05-01T20:56:24.654Z,67.00
2019-05-01T20:58:52.266Z,67.70
2019-05-01T21:01:19.525Z,69.30
2019-05-01T21:04:04.157Z,68.10
2019-05-01T21:06:39.116Z,68.40
2019-05-01T21:09:13.724Z,68.30
2019-05-01T21:11:42.260Z,70.00
2019-05-01T21:14:19.723Z,68.00
2019-05-01T21:16:43.770Z,69.00
2019-05-01T21:19:10.822Z,67.70
2019-05-01T21:21:37.764Z,68.60
2019-05-01T21:24:10.946Z,70.60
2019-05-01T21:26:43.365Z,69.80
2019-05-01T21:29:10.576Z,70.70
2019-05-01T21:31:37.450Z,70.00
2019-05-01T21:34:04.525Z,70.60
2019-05-01T21:36:31.412Z,68.80
2019-05-01T21:39:04.639Z,69.20
2019-05-01T21:41:39.331Z,70.30
2019-05-01T21:44:06.803Z,69.00
2019-05-01T21:46:34.102Z,69.30
2019-05-01T21:49:13.094Z,70.20
2019-05-01T21:51:42.331Z,70.00
2019-05-01T21:54:11.123Z,69.00
2019-05-01T21:56:41.484Z,70.00
2019-05-01T21:59:15.087Z,70.70
2019-05-01T22:01:42.103Z,72.20
2019-05-01T22:04:08.889Z,71.20
2019-05-01T22:06:36.037Z,70.90
2019-05-01T22:09:10.419Z,71.20
2019-05-01T22:11:37.841Z,68.90
2019-05-01T22:14:11.691Z,72.10
2019-05-01T22:16:40.701Z,72.10
2019-05-01T22:19:14.560Z,71.80
2019-05-01T22:21:59.853Z,72.40
2019-05-01T22:24:36.048Z,72.00
2019-05-01T22:27:06.795Z,73.00
2019-05-01T22:29:37.279Z,72.40
2019-05-01T22:32:32.408Z,73.10
2019-05-01T22:35:14.632Z,72.20
2019-05-01T22:37:43.514Z,72.90
2019-05-01T22:41:05.347Z,71.50
2019-05-01T22:44:04.052Z,71.30
2019-05-01T22:46:52.497Z,73.20
2019-05-01T22:49:19.256Z,70.90
2019-05-01T22:51:46.402Z,73.10
2019-05-01T22:54:21.994Z,72.50
2019-05-01T22:56:48.858Z,71.50
2019-05-01T22:59:17.648Z,73.00
2019-05-01T23:01:49.171Z,74.20
2019-05-01T23:04:17.061Z,71.80
2019-05-01T23:06:46.641Z,72.40
2019-05-01T23:09:30.335Z,71.90
2019-05-01T23:12:06.496Z,71.80
2019-05-01T23:14:34.367Z,73.00
2019-05-01T23:17:28.826Z,73.80
2019-05-01T23:19:59.048Z,74.00
2019-05-01T23:22:27.631Z,73.30
2019-05-01T23:24:54.483Z,73.90
2019-05-01T23:27:31.388Z,73.30
2019-05-01T23:30:00.282Z,71.30
2019-05-01T23:32:35.144Z,72.50
2019-05-01T23:35:01.904Z,72.40
2019-05-01T23:37:28.903Z,74.30
2019-05-01T23:39:56.745Z,73.80
2019-05-01T23:42:24.591Z,74.00
2019-05-01T23:44:52.540Z,73.00
2019-05-01T23:47:20.656Z,72.50
2019-05-01T23:49:52.463Z,76.90
2019-05-01T23:52:16.432Z,72.70
2019-05-01T23:54:45.296Z,73.60
2019-05-01T23:57:15.005Z,73.50
2019-05-01T23:59:40.885Z,73.30
